Time;durP1;ratioP1;P1;durP2;ratioP2;P2;SDS_P1;SDS_P2;PMS_P1;PMS_P2;Temp;Humidity;BMP_temperature;BMP_pressure;BME280_temperature;BME280_humidity;BME280_pressure;Samples;Min_cycle;Max_cycle;Signal;HPM_P1;HPM_P2
2022/09/18 00:03:56;;;;;;;4.15;1.38;;;;;;;12.01;76.22;100037.31;10262633;28;20185;-76
2022/09/18 00:08:59;;;;;;;4.28;1.63;;;;;;;12.01;76.13;100044.50;10240287;28;20526;-76
2022/09/18 00:14:01;;;;;;;5.10;1.25;;;;;;;12.10;75.81;100050.78;10239583;28;20053;-75
2022/09/18 00:19:04;;;;;;;4.30;1.67;;;;;;;12.05;75.84;100043.22;10241878;28;20047;-73
2022/09/18 00:24:06;;;;;;;5.57;1.30;;;;;;;12.13;75.87;100045.19;10240591;28;20635;-74
2022/09/18 00:29:07;;;;;;;3.90;1.25;;;;;;;12.06;76.24;100049.41;10242032;28;20055;-74
2022/09/18 00:34:13;;;;;;;8.48;2.38;;;;;;;12.14;76.25;100041.53;10238805;28;20824;-75
2022/09/18 00:39:22;;;;;;;3.67;1.55;;;;;;;12.15;76.25;100048.56;10230992;28;20043;-76
2022/09/18 00:44:38;;;;;;;4.78;1.27;;;;;;;12.17;75.38;100041.25;10240724;28;20071;-73
2022/09/18 00:49:57;;;;;;;5.78;1.42;;;;;;;12.15;75.87;100043.22;10241358;28;20446;-74
2022/09/18 00:55:06;;;;;;;4.38;1.42;;;;;;;11.99;77.71;100028.63;10228617;28;20066;-75
2022/09/18 01:00:11;;;;;;;3.58;1.45;;;;;;;12.08;76.84;100037.59;10237451;28;20059;-76
2022/09/18 01:05:17;;;;;;;5.18;1.80;;;;;;;12.02;77.08;100039.00;10236395;28;20739;-74
2022/09/18 01:10:28;;;;;;;3.10;1.35;;;;;;;12.09;76.87;100041.13;10240464;28;20549;-76
2022/09/18 01:15:46;;;;;;;2.90;1.40;;;;;;;12.09;76.73;100043.78;10237169;28;20051;-76
2022/09/18 01:21:01;;;;;;;6.18;1.90;;;;;;;12.03;77.02;100040.69;10245189;28;20045;-74
2022/09/18 01:26:29;;;;;;;4.45;1.23;;;;;;;12.07;76.89;100025.25;10244584;28;20055;-74
2022/09/18 01:31:40;;;;;;;2.42;1.10;;;;;;;12.20;76.48;100027.63;10242849;28;20051;-73
2022/09/18 01:36:47;;;;;;;4.05;1.27;;;;;;;12.23;76.86;100035.34;10247007;28;20058;-75
2022/09/18 01:41:50;;;;;;;3.42;1.55;;;;;;;12.18;76.25;100048.28;10246336;28;20180;-73
2022/09/18 01:46:55;;;;;;;2.55;1.98;;;;;;;12.27;75.65;100034.09;10264750;28;20418;-74
2022/09/18 01:52:05;;;;;;;4.95;1.65;;;;;;;12.31;74.74;100048.88;10263236;28;20055;-73
2022/09/18 01:57:21;;;;;;;3.97;1.23;;;;;;;12.30;75.20;100046.34;10248989;28;20447;-74
2022/09/18 02:02:29;;;;;;;3.92;1.17;;;;;;;12.15;75.63;100040.56;10248683;28;20039;-75
2022/09/18 02:07:44;;;;;;;2.42;1.00;;;;;;;12.37;76.05;100036.78;10246516;28;20043;-74
2022/09/18 02:12:47;;;;;;;4.35;1.42;;;;;;;12.31;74.97;100032.84;10249011;28;20054;-74
2022/09/18 02:17:54;;;;;;;3.40;1.17;;;;;;;12.33;75.36;100035.38;10247608;28;20050;-74
2022/09/18 02:23:01;;;;;;;1.75;1.40;;;;;;;12.32;75.44;100034.50;10246564;28;20059;-77
2022/09/18 02:28:04;;;;;;;2.38;1.15;;;;;;;12.31;76.41;100019.50;10293260;28;20051;-77
2022/09/18 02:33:32;;;;;;;2.87;0.90;;;;;;;12.34;76.40;100023.69;10257777;28;20619;-75
2022/09/18 02:39:13;;;;;;;2.45;0.95;;;;;;;12.41;75.86;100030.16;10247819;28;20305;-74
2022/09/18 02:44:26;;;;;;;4.28;1.60;;;;;;;12.39;76.02;100018.78;10247963;28;20048;-74
2022/09/18 02:49:58;;;;;;;2.75;0.80;;;;;;;12.44;76.19;100016.53;10242801;28;20498;-75
2022/09/18 02:55:22;;;;;;;3.40;0.73;;;;;;;12.50;75.22;100015.97;10241044;28;20546;-76
2022/09/18 03:00:26;;;;;;;3.63;1.17;;;;;;;12.43;76.50;100011.34;10241769;28;20070;-73
2022/09/18 03:05:27;;;;;;;6.32;2.35;;;;;;;12.50;75.49;100005.28;10237018;28;20061;-76
2022/09/18 03:10:28;;;;;;;4.03;1.27;;;;;;;12.55;74.82;99994.22;10244017;28;20050;-75
2022/09/18 03:15:30;;;;;;;3.65;0.93;;;;;;;12.46;74.85;99992.38;10246985;28;20051;-73
2022/09/18 03:20:32;;;;;;;4.72;1.50;;;;;;;12.34;75.42;99997.88;10250090;28;20418;-76
2022/09/18 03:25:34;;;;;;;3.45;0.80;;;;;;;12.33;76.34;99990.00;10247032;28;20051;-77
2022/09/18 03:30:35;;;;;;;2.20;1.00;;;;;;;12.33;75.82;100004.19;10266310;28;20050;-74
2022/09/18 03:35:37;;;;;;;2.03;0.70;;;;;;;12.43;75.80;99992.66;10250563;28;20054;-74
2022/09/18 03:40:41;;;;;;;4.07;0.70;;;;;;;12.47;75.07;100004.75;10253732;28;20673;-74
2022/09/18 03:45:48;;;;;;;1.25;0.60;;;;;;;12.38;75.28;99999.28;10236105;28;20339;-75
2022/09/18 03:50:49;;;;;;;2.50;0.70;;;;;;;12.36;75.27;100001.22;10235123;28;20062;-74
2022/09/18 03:55:51;;;;;;;3.80;0.82;;;;;;;12.36;75.92;99998.56;10234475;28;20055;-73
2022/09/18 04:00:52;;;;;;;1.90;1.10;;;;;;;12.41;74.91;99999.97;10235496;28;20046;-74
2022/09/18 04:05:53;;;;;;;2.67;0.98;;;;;;;12.33;75.73;99993.50;10240364;28;20460;-74
2022/09/18 04:10:55;;;;;;;1.88;0.60;;;;;;;12.41;75.76;99998.13;10241825;28;20055;-75
2022/09/18 04:15:56;;;;;;;3.13;0.95;;;;;;;12.41;75.18;99994.63;10238444;28;20062;-73
2022/09/18 04:20:57;;;;;;;4.10;1.35;;;;;;;12.42;74.51;99993.66;10249948;28;20138;-75
2022/09/18 04:25:59;;;;;;;3.42;0.60;;;;;;;12.37;74.69;100002.94;10283793;28;20051;-73
2022/09/18 04:31:01;;;;;;;1.58;0.50;;;;;;;12.44;74.63;100005.84;10237074;28;20083;-74
2022/09/18 04:36:02;;;;;;;2.58;0.45;;;;;;;12.46;74.17;100003.03;10238968;28;20066;-73
2022/09/18 04:41:04;;;;;;;2.83;0.70;;;;;;;12.42;74.10;100005.16;10237085;28;20047;-76
2022/09/18 04:46:05;;;;;;;2.38;0.47;;;;;;;12.49;73.88;100003.63;10240412;28;20643;-75
2022/09/18 04:51:07;;;;;;;2.35;0.30;;;;;;;12.41;74.01;100010.66;10243841;28;20138;-76
2022/09/18 04:56:08;;;;;;;2.00;0.50;;;;;;;12.37;74.26;100005.59;10238748;28;20470;-73
2022/09/18 05:01:10;;;;;;;2.88;0.70;;;;;;;12.43;73.73;99992.66;10244502;28;20103;-73
2022/09/18 05:06:11;;;;;;;2.83;0.50;;;;;;;12.43;73.80;99987.31;10248963;28;20047;-73
2022/09/18 05:11:13;;;;;;;3.58;0.52;;;;;;;12.44;74.56;99994.34;10246096;28;20058;-73
2022/09/18 05:16:15;;;;;;;2.45;0.47;;;;;;;12.29;73.46;99986.75;10245985;28;20047;-75
2022/09/18 05:21:18;;;;;;;1.83;0.32;;;;;;;12.35;73.00;99998.72;10245909;28;20051;-76
2022/09/18 05:26:19;;;;;;;2.08;0.45;;;;;;;12.14;73.50;100001.50;10259945;28;20070;-75
2022/09/18 05:31:20;;;;;;;2.47;0.50;;;;;;;12.18;74.04;100005.59;10268191;28;20411;-75
2022/09/18 05:36:21;;;;;;;0.90;0.55;;;;;;;12.20;74.34;100007.16;10248854;28;20466;-77
2022/09/18 05:41:23;;;;;;;3.97;0.50;;;;;;;12.36;73.74;100008.41;10241475;28;20047;-73
2022/09/18 05:46:24;;;;;;;2.92;0.65;;;;;;;12.24;73.70;100010.38;10243389;28;20059;-77
2022/09/18 05:51:25;;;;;;;3.40;0.50;;;;;;;12.34;73.79;100005.88;10241997;28;20166;-75
2022/09/18 05:56:27;;;;;;;2.67;0.50;;;;;;;12.40;74.31;100017.81;10239957;28;20069;-76
2022/09/18 06:01:29;;;;;;;1.55;0.17;;;;;;;12.41;73.65;100011.47;10223767;28;20061;-72
2022/09/18 06:06:31;;;;;;;1.10;0.73;;;;;;;12.36;73.34;100009.25;10235698;28;20059;-72
2022/09/18 06:11:32;;;;;;;2.92;0.50;;;;;;;12.40;73.36;100015.16;10231279;28;20058;-73
2022/09/18 06:16:34;;;;;;;2.63;0.50;;;;;;;12.46;73.47;100008.38;10232349;28;20051;-72
2022/09/18 06:21:42;;;;;;;1.95;0.63;;;;;;;12.64;72.78;100024.53;10228987;28;20038;-70
2022/09/18 06:26:43;;;;;;;0.80;0.30;;;;;;;12.53;72.73;100028.19;10230387;28;20629;-70
2022/09/18 06:31:44;;;;;;;0.80;0.38;;;;;;;12.49;72.85;100026.78;10233429;28;20062;-74
2022/09/18 06:36:46;;;;;;;1.88;0.38;;;;;;;12.51;73.53;100028.34;10231307;28;20061;-72
2022/09/18 06:41:48;;;;;;;1.15;0.30;;;;;;;12.55;73.19;100035.09;10230395;28;20050;-73
2022/09/18 06:46:49;;;;;;;3.20;0.52;;;;;;;12.51;72.96;100022.16;10231244;28;20080;-73
2022/09/18 06:51:51;;;;;;;0.63;0.30;;;;;;;12.48;73.13;100023.28;10230952;28;20083;-71
2022/09/18 06:56:52;;;;;;;2.13;0.40;;;;;;;12.46;73.29;100030.59;10227952;28;20066;-74
2022/09/18 07:01:53;;;;;;;0.80;0.38;;;;;;;12.53;73.88;100044.22;10259213;28;20039;-76
2022/09/18 07:06:55;;;;;;;1.58;0.47;;;;;;;12.42;73.97;100039.88;10276610;28;20094;-74
2022/09/18 07:11:56;;;;;;;1.30;0.30;;;;;;;12.43;73.48;100041.56;10279243;28;20065;-75
2022/09/18 07:16:57;;;;;;;1.88;0.30;;;;;;;12.53;73.09;100036.22;10245453;28;20058;-70
2022/09/18 07:21:58;;;;;;;2.33;0.40;;;;;;;12.40;73.55;100044.53;10232478;28;20066;-72
2022/09/18 07:27:00;;;;;;;0.98;0.35;;;;;;;12.67;73.41;100041.13;10231552;28;20061;-71
2022/09/18 07:32:01;;;;;;;1.38;0.20;;;;;;;12.80;72.42;100053.34;10229428;28;20524;-71
2022/09/18 07:37:02;;;;;;;0.77;0.10;;;;;;;12.70;73.81;100043.50;10227672;28;20057;-73
2022/09/18 07:42:04;;;;;;;0.70;0.50;;;;;;;12.66;75.35;100052.78;10254000;28;20054;-71
2022/09/18 07:47:10;;;;;;;1.60;0.20;;;;;;;12.84;75.27;100044.88;10227198;28;20063;-75
2022/09/18 07:52:12;;;;;;;1.52;0.30;;;;;;;12.82;75.69;100056.69;10226732;28;20596;-70
2022/09/18 07:57:13;;;;;;;1.67;0.30;;;;;;;12.86;76.75;100058.09;10227269;28;20070;-71
2022/09/18 08:02:14;;;;;;;1.10;0.30;;;;;;;12.87;77.95;100059.78;10224075;28;21071;-73
2022/09/18 08:07:16;;;;;;;1.25;0.20;;;;;;;13.11;78.99;100055.81;10227154;28;20106;-73
2022/09/18 08:12:17;;;;;;;2.65;0.88;;;;;;;13.30;78.54;100052.22;10227137;28;20050;-73
2022/09/18 08:17:19;;;;;;;1.05;0.25;;;;;;;13.57;77.57;100048.75;10226721;28;20055;-74
2022/09/18 08:22:20;;;;;;;0.57;0.20;;;;;;;13.57;75.36;100040.72;10228629;28;20089;-74
2022/09/18 08:27:21;;;;;;;1.05;0.10;;;;;;;13.35;75.72;100034.78;10233206;28;20066;-71
2022/09/18 08:32:23;;;;;;;0.85;0.47;;;;;;;13.37;75.45;100050.69;10227698;28;20049;-72
2022/09/18 08:37:24;;;;;;;1.23;0.13;;;;;;;13.42;74.91;100053.75;10231401;28;20054;-74
2022/09/18 08:42:58;;;;;;;0.35;0.10;;;;;;;13.32;75.09;100042.25;10229270;28;20062;-76
2022/09/18 08:48:10;;;;;;;1.23;0.30;;;;;;;13.37;75.03;100038.16;10226412;28;20058;-74
2022/09/18 08:53:21;;;;;;;1.02;0.32;;;;;;;13.42;74.06;100049.25;10241489;28;20051;-75
2022/09/18 08:58:36;;;;;;;0.85;0.50;;;;;;;13.44;74.32;100049.13;10275382;28;20509;-76
2022/09/18 09:03:58;;;;;;;1.45;0.60;;;;;;;13.41;73.64;100038.72;10273545;28;20123;-76
2022/09/18 09:09:21;;;;;;;0.50;0.20;;;;;;;13.37;73.25;100046.16;10282740;28;20080;-74
2022/09/18 09:14:34;;;;;;;1.08;0.88;;;;;;;13.33;74.28;100044.78;10276382;28;20049;-75
2022/09/18 09:20:07;;;;;;;0.45;0.20;;;;;;;13.49;73.19;100043.31;10263195;28;20055;-73
2022/09/18 09:25:35;;;;;;;1.33;0.20;;;;;;;13.37;73.36;100046.16;10227806;28;20058;-76
2022/09/18 09:30:38;;;;;;;1.33;0.30;;;;;;;13.38;73.24;100031.81;10224010;28;20051;-75
2022/09/18 09:35:47;;;;;;;2.10;0.50;;;;;;;13.36;74.40;100033.81;10231569;28;20065;-75
2022/09/18 09:40:53;;;;;;;1.10;0.40;;;;;;;13.44;74.44;100031.22;10232770;28;20065;-73
2022/09/18 09:45:58;;;;;;;1.27;0.50;;;;;;;13.55;73.69;100011.47;10244156;28;20218;-73
2022/09/18 09:51:15;;;;;;;1.63;1.05;;;;;;;13.60;72.83;100016.38;10253342;28;20948;-75
2022/09/18 09:56:36;;;;;;;4.28;0.60;;;;;;;13.70;72.08;100019.00;10231797;28;20454;-71
2022/09/18 10:01:44;;;;;;;2.13;0.60;;;;;;;13.78;70.70;100025.28;10229467;28;20560;-73
2022/09/18 10:07:17;;;;;;;2.35;0.60;;;;;;;13.71;69.79;100031.41;10228457;28;20062;-74
2022/09/18 10:12:43;;;;;;;1.25;0.60;;;;;;;13.94;68.99;100031.81;10228719;28;20047;-75
2022/09/18 10:17:49;;;;;;;2.03;0.52;;;;;;;13.90;68.71;100031.28;10238517;28;20051;-71
2022/09/18 10:22:51;;;;;;;3.85;3.55;;;;;;;14.25;68.12;100012.72;10231633;28;20074;-74
2022/09/18 10:27:52;;;;;;;1.40;0.50;;;;;;;14.48;66.26;100019.25;10229131;28;20063;-72
2022/09/18 10:32:54;;;;;;;1.00;0.73;;;;;;;14.26;66.70;100022.41;10230009;28;20046;-75
2022/09/18 10:37:56;;;;;;;0.73;0.30;;;;;;;14.12;69.07;100013.94;10230511;28;20063;-71
2022/09/18 10:42:58;;;;;;;1.33;0.40;;;;;;;14.13;70.95;100020.97;10229184;28;20054;-74
2022/09/18 10:48:12;;;;;;;1.35;0.93;;;;;;;14.00;72.45;100001.75;10229339;28;20058;-75
2022/09/18 10:53:38;;;;;;;1.65;0.60;;;;;;;14.17;71.92;100000.09;10228716;28;20147;-76
2022/09/18 10:58:43;;;;;;;2.70;0.90;;;;;;;14.11;71.68;99990.84;10231464;28;20042;-74
2022/09/18 11:04:16;;;;;;;3.30;1.58;;;;;;;14.21;71.40;99995.28;10230509;28;20134;-76
2022/09/18 11:09:22;;;;;;;3.25;0.60;;;;;;;14.20;69.98;99996.25;10237949;28;20719;-75
2022/09/18 11:14:37;;;;;;;0.90;0.43;;;;;;;14.22;68.83;99986.25;10230618;28;20506;-77
2022/09/18 11:19:39;;;;;;;2.08;0.60;;;;;;;14.11;69.04;99990.84;10224658;28;20773;-76
2022/09/18 11:24:43;;;;;;;2.47;0.52;;;;;;;14.19;68.62;99981.22;10222164;28;20443;-73
2022/09/18 11:29:51;;;;;;;1.40;0.57;;;;;;;14.23;67.36;99974.53;10230334;28;20722;-75
2022/09/18 11:35:12;;;;;;;1.45;0.32;;;;;;;14.29;67.33;99976.59;10235485;28;20106;-74
2022/09/18 11:40:31;;;;;;;4.03;0.80;;;;;;;14.30;67.04;99989.81;10233459;28;20054;-77
2022/09/18 11:45:41;;;;;;;1.10;0.60;;;;;;;14.41;65.90;99978.06;10214457;28;20054;-72
2022/09/18 11:50:44;;;;;;;1.50;0.35;;;;;;;14.29;64.21;99977.47;10234311;28;20513;-75
2022/09/18 11:55:57;;;;;;;2.90;0.65;;;;;;;14.24;64.13;99954.81;10237040;28;20050;-76
2022/09/18 12:01:12;;;;;;;1.50;0.30;;;;;;;14.11;64.43;99961.41;10234006;28;20421;-75
2022/09/18 12:06:27;;;;;;;1.52;0.30;;;;;;;14.12;64.01;99960.41;10235002;28;20057;-74
2022/09/18 12:12:07;;;;;;;1.33;0.57;;;;;;;14.25;63.25;99959.19;10218881;28;20051;-75
2022/09/18 12:17:23;;;;;;;2.42;0.43;;;;;;;14.44;62.20;99959.00;10214682;28;20911;-74
2022/09/18 12:22:47;;;;;;;2.47;0.32;;;;;;;14.43;60.58;99962.66;10228798;28;20113;-73
2022/09/18 12:28:14;;;;;;;0.65;0.40;;;;;;;14.56;60.40;99956.06;10244095;28;20280;-75
2022/09/18 12:33:42;;;;;;;0.95;0.50;;;;;;;14.58;59.74;99949.56;10221496;28;20111;-74
2022/09/18 12:38:58;;;;;;;0.75;0.32;;;;;;;14.61;59.29;99951.13;10235955;28;20043;-75
2022/09/18 12:44:28;;;;;;;1.45;0.50;;;;;;;14.50;60.35;99953.03;10256385;28;20043;-74
2022/09/18 12:50:10;;;;;;;1.48;0.60;;;;;;;14.70;61.18;99954.66;10238349;28;20149;-73
2022/09/18 12:55:40;;;;;;;2.33;0.70;;;;;;;14.71;59.70;99951.84;10244722;28;20061;-73
2022/09/18 13:00:48;;;;;;;0.98;0.40;;;;;;;14.65;60.08;99934.56;10234641;28;20058;-74
2022/09/18 13:06:11;;;;;;;0.73;0.40;;;;;;;14.61;60.60;99937.72;10238593;28;20048;-74
2022/09/18 13:11:32;;;;;;;1.40;0.65;;;;;;;14.57;62.09;99930.97;10250504;28;20070;-73
2022/09/18 13:16:54;;;;;;;1.83;0.90;;;;;;;14.58;62.44;99932.66;10239582;28;20586;-76
2022/09/18 13:22:10;;;;;;;4.35;1.40;;;;;;;14.54;61.59;99932.09;10240377;28;20545;-76
2022/09/18 13:27:20;;;;;;;1.95;0.60;;;;;;;14.50;61.04;99931.59;10224780;28;20055;-72
2022/09/18 13:32:33;;;;;;;3.17;0.70;;;;;;;14.29;59.06;99923.91;10244503;28;20162;-73
2022/09/18 13:37:47;;;;;;;3.53;0.95;;;;;;;14.27;61.62;99925.06;10235653;28;20059;-74
2022/09/18 13:42:52;;;;;;;4.22;0.60;;;;;;;14.21;62.34;99917.66;10221603;28;20494;-73
2022/09/18 13:48:39;;;;;;;2.67;0.60;;;;;;;14.20;63.41;99919.50;10242697;28;20061;-76
2022/09/18 13:53:49;;;;;;;2.08;0.73;;;;;;;14.29;62.57;99929.28;10185131;28;20047;-74
2022/09/18 13:58:59;;;;;;;2.50;0.60;;;;;;;14.19;63.15;99925.00;10244492;28;20050;-77
2022/09/18 14:04:38;;;;;;;2.92;0.70;;;;;;;14.26;63.48;99918.00;10231176;28;20268;-73
2022/09/18 14:09:51;;;;;;;2.95;1.00;;;;;;;14.37;62.04;99920.44;10233936;28;20663;-73
2022/09/18 14:15:18;;;;;;;1.45;0.73;;;;;;;14.23;62.37;99921.88;10226781;28;20059;-73
2022/09/18 14:20:20;;;;;;;2.38;0.60;;;;;;;14.18;63.19;99944.72;10247594;28;20458;-73
2022/09/18 14:25:43;;;;;;;3.78;0.60;;;;;;;13.95;62.41;99918.44;10235107;28;20065;-71
2022/09/18 14:31:16;;;;;;;3.58;0.80;;;;;;;13.89;61.57;99905.69;10230256;28;20058;-73
2022/09/18 14:36:18;;;;;;;3.58;1.17;;;;;;;13.88;61.64;99925.41;10231939;28;20058;-75
2022/09/18 14:41:28;;;;;;;1.60;0.63;;;;;;;13.89;61.05;99921.75;10240505;28;20318;-75
2022/09/18 14:46:31;;;;;;;3.45;1.02;;;;;;;13.77;61.10;99905.91;10280214;28;20063;-76
2022/09/18 14:51:32;;;;;;;3.47;0.70;;;;;;;13.79;62.07;99911.94;10293644;28;20058;-79
2022/09/18 14:56:52;;;;;;;1.35;0.80;;;;;;;13.82;62.26;99904.59;10247807;28;20066;-74
2022/09/18 15:02:21;;;;;;;3.75;0.88;;;;;;;13.90;63.11;99912.69;10232306;28;20651;-76
2022/09/18 15:07:23;;;;;;;1.98;0.85;;;;;;;13.88;63.42;99899.47;10253557;28;20054;-76
2022/09/18 15:12:27;;;;;;;3.78;0.88;;;;;;;13.83;63.52;99904.47;10246635;28;20065;-72
2022/09/18 15:17:31;;;;;;;2.67;1.00;;;;;;;13.83;64.73;99911.66;10229650;28;20063;-74
2022/09/18 15:22:32;;;;;;;1.90;1.33;;;;;;;13.69;65.63;99905.84;10231554;28;20067;-77
2022/09/18 15:27:34;;;;;;;2.90;1.30;;;;;;;13.66;65.20;99898.13;10227531;28;20053;-75
2022/09/18 15:32:41;;;;;;;2.42;1.00;;;;;;;13.64;67.00;99885.88;10244351;28;20054;-76
2022/09/18 15:37:49;;;;;;;3.42;1.30;;;;;;;13.56;65.86;99881.31;10230335;28;20046;-72
2022/09/18 15:42:57;;;;;;;3.13;1.20;;;;;;;13.47;66.11;99875.03;10237906;28;20047;-76
2022/09/18 15:48:01;;;;;;;2.47;1.25;;;;;;;13.49;68.59;99867.69;10186989;28;20055;-73
2022/09/18 15:53:14;;;;;;;2.85;1.77;;;;;;;13.54;67.40;99880.59;10195273;28;20055;-74
2022/09/18 15:58:27;;;;;;;3.17;1.45;;;;;;;13.34;68.20;99883.41;10198744;28;20059;-72
2022/09/18 16:03:30;;;;;;;2.60;1.17;;;;;;;13.35;68.64;99887.75;10227288;28;20058;-73
2022/09/18 16:08:34;;;;;;;3.05;1.50;;;;;;;13.44;70.41;99873.47;10233659;28;20059;-75
2022/09/18 16:13:37;;;;;;;2.97;1.63;;;;;;;13.52;69.06;99887.94;10234522;28;20049;-73
2022/09/18 16:19:06;;;;;;;1.83;1.00;;;;;;;13.50;71.22;99888.09;10231154;28;20054;-74
2022/09/18 16:24:19;;;;;;;2.33;1.02;;;;;;;13.39;72.04;99881.13;10245090;28;20042;-72
2022/09/18 16:29:22;;;;;;;2.95;1.25;;;;;;;13.30;73.00;99857.09;10231836;28;20085;-76
2022/09/18 16:34:26;;;;;;;2.40;1.17;;;;;;;13.25;74.33;99881.59;10232019;28;20384;-74
2022/09/18 16:39:27;;;;;;;;;;;;;;;13.16;72.89;99861.13;10231578;28;20047;-77
2022/09/18 16:44:28;;;;;;;3.58;1.65;;;;;;;13.23;73.11;99856.88;10241676;28;20594;-74
2022/09/18 16:49:34;;;;;;;3.38;1.55;;;;;;;13.21;74.76;99859.69;10245357;28;20422;-74
2022/09/18 16:54:35;;;;;;;3.35;1.80;;;;;;;13.24;73.54;99855.84;10241958;28;20171;-74
2022/09/18 16:59:41;;;;;;;3.60;1.60;;;;;;;13.18;73.31;99864.47;10244393;28;20051;-75
2022/09/18 17:04:42;;;;;;;3.25;1.50;;;;;;;12.95;74.08;99864.88;10245638;28;20154;-75
2022/09/18 17:09:44;;;;;;;2.30;1.20;;;;;;;12.98;75.62;99869.09;10249846;28;20425;-77
2022/09/18 17:14:45;;;;;;;2.35;1.10;;;;;;;12.80;75.02;99867.19;10247926;28;20066;-74
2022/09/18 17:19:46;;;;;;;3.47;0.80;;;;;;;12.69;75.61;99870.91;10250115;28;20638;-75
2022/09/18 17:24:50;;;;;;;3.67;0.82;;;;;;;12.68;76.69;99882.56;10256260;28;20082;-74
2022/09/18 17:29:51;;;;;;;1.38;1.00;;;;;;;12.48;77.05;99872.97;10265154;28;20058;-75
2022/09/18 17:34:52;;;;;;;1.08;0.90;;;;;;;12.56;77.82;99875.72;10285129;28;20102;-76
2022/09/18 17:39:54;;;;;;;2.00;0.93;;;;;;;12.70;78.86;99874.41;10248137;28;20078;-76
2022/09/18 17:44:56;;;;;;;2.15;1.08;;;;;;;12.74;78.14;99873.13;10241439;28;20379;-77
2022/09/18 17:49:57;;;;;;;2.55;1.23;;;;;;;12.63;78.36;99876.84;10242847;28;20058;-75
2022/09/18 17:54:59;;;;;;;1.92;1.17;;;;;;;12.71;77.95;99874.25;10237002;28;20597;-75
2022/09/18 18:00:00;;;;;;;1.30;0.70;;;;;;;12.61;77.84;99862.81;10231373;28;20477;-76
2022/09/18 18:05:02;;;;;;;2.42;1.10;;;;;;;12.58;79.61;99863.09;10232466;28;20077;-73
2022/09/18 18:10:04;;;;;;;3.20;1.58;;;;;;;12.39;79.75;99861.31;10232431;28;21951;-73
2022/09/18 18:15:06;;;;;;;2.67;1.65;;;;;;;12.28;79.88;99865.00;10234527;28;20061;-76
2022/09/18 18:20:08;;;;;;;3.25;1.17;;;;;;;12.31;81.99;99864.72;10256211;28;20063;-75
2022/09/18 18:25:11;;;;;;;2.17;1.10;;;;;;;12.37;82.96;99861.47;10269912;28;20058;-74
2022/09/18 18:30:13;;;;;;;2.58;1.45;;;;;;;12.43;81.94;99867.19;10234486;28;20633;-75
2022/09/18 18:35:14;;;;;;;1.80;1.10;;;;;;;12.42;83.36;99873.53;10231932;28;20596;-75
2022/09/18 18:40:16;;;;;;;2.33;1.17;;;;;;;12.53;82.76;99882.19;10231355;28;20673;-74
2022/09/18 18:45:18;;;;;;;1.92;1.10;;;;;;;12.29;84.42;99898.69;10232409;28;20058;-73
2022/09/18 18:50:20;;;;;;;1.92;0.40;;;;;;;12.18;82.89;99904.19;10230300;28;20066;-74
2022/09/18 18:55:22;;;;;;;1.77;0.15;;;;;;;12.19;81.08;99927.25;10231932;28;20058;-74
2022/09/18 19:00:26;;;;;;;1.42;0.25;;;;;;;12.36;79.50;99937.16;10246530;28;20275;-74
2022/09/18 19:05:29;;;;;;;0.80;0.22;;;;;;;12.45;79.13;99945.31;10227156;28;20129;-76
2022/09/18 19:10:31;;;;;;;0.50;0.20;;;;;;;12.40;79.97;99955.56;10231694;28;20047;-76
2022/09/18 19:15:35;;;;;;;0.70;0.35;;;;;;;12.32;78.37;99951.78;10233041;28;20786;-75
2022/09/18 19:20:39;;;;;;;2.53;0.22;;;;;;;12.19;79.27;99967.25;10230214;28;20105;-73
2022/09/18 19:25:40;;;;;;;1.35;0.20;;;;;;;12.08;79.74;99976.22;10228662;28;20165;-73
2022/09/18 19:30:42;;;;;;;4.30;2.20;;;;;;;12.08;79.63;99976.22;10228855;28;20067;-76
2022/09/18 19:35:43;;;;;;;1.33;0.30;;;;;;;12.08;77.36;99978.06;10231126;28;20078;-76
2022/09/18 19:40:48;;;;;;;1.08;0.43;;;;;;;12.14;78.17;99980.16;10229725;28;20244;-77
2022/09/18 19:45:49;;;;;;;1.20;0.40;;;;;;;12.20;76.96;99982.28;10230633;28;20066;-75
2022/09/18 19:50:54;;;;;;;1.27;0.30;;;;;;;12.03;76.49;99982.00;10224823;28;20061;-75
2022/09/18 19:55:55;;;;;;;1.00;0.50;;;;;;;11.91;78.69;99993.75;10228881;28;20046;-73
2022/09/18 20:01:00;;;;;;;1.42;0.20;;;;;;;11.91;76.05;100009.75;10207374;28;20051;-74
2022/09/18 20:06:02;;;;;;;0.90;0.52;;;;;;;11.81;78.36;99999.09;10235557;28;20074;-76
2022/09/18 20:11:03;;;;;;;0.80;0.50;;;;;;;11.88;77.23;99978.03;10232333;28;20065;-75
2022/09/18 20:16:07;;;;;;;1.63;0.70;;;;;;;11.96;78.67;99994.19;10230653;28;20058;-75
2022/09/18 20:21:12;;;;;;;1.13;0.63;;;;;;;11.95;78.98;99991.66;10227080;28;20050;-76
2022/09/18 20:26:16;;;;;;;0.82;0.20;;;;;;;11.88;77.20;100014.53;10231914;28;20426;-77
2022/09/18 20:31:19;;;;;;;0.68;0.30;;;;;;;11.84;78.17;99989.94;10226339;28;20070;-74
2022/09/18 20:36:21;;;;;;;0.90;0.30;;;;;;;11.80;76.02;99978.72;10229489;28;20059;-76
2022/09/18 20:41:25;;;;;;;1.13;0.55;;;;;;;11.63;76.38;99942.91;10227438;28;20314;-75
2022/09/18 20:46:27;;;;;;;1.17;0.45;;;;;;;11.56;75.98;99952.44;10230197;28;20649;-75
2022/09/18 20:51:34;;;;;;;1.27;0.25;;;;;;;11.58;75.80;99960.28;10233664;28;20197;-75
2022/09/18 20:56:40;;;;;;;1.52;0.70;;;;;;;11.62;78.46;99967.88;10234026;28;20054;-77
2022/09/18 21:01:44;;;;;;;1.65;0.50;;;;;;;11.56;75.68;99967.56;10256916;28;20057;-79
2022/09/18 21:06:54;;;;;;;0.63;0.50;;;;;;;11.45;76.33;99979.19;10252918;28;20058;-77
2022/09/18 21:11:55;;;;;;;1.52;0.85;;;;;;;11.48;77.27;99977.13;10234427;28;20042;-73
2022/09/18 21:16:56;;;;;;;0.80;0.25;;;;;;;11.54;77.72;99996.19;10230750;28;20051;-77
2022/09/18 21:21:58;;;;;;;1.48;0.30;;;;;;;11.40;76.08;100000.91;10229747;28;20070;-74
2022/09/18 21:26:59;;;;;;;0.47;0.20;;;;;;;11.23;74.78;99997.09;10229709;28;20066;-76
2022/09/18 21:32:00;;;;;;;0.88;0.30;;;;;;;10.92;75.87;99989.06;10238860;28;20051;-78
2022/09/18 21:37:06;;;;;;;1.40;0.65;;;;;;;10.82;76.91;99979.34;10242437;28;20043;-79
2022/09/18 21:42:08;;;;;;;0.60;0.30;;;;;;;10.63;75.53;99982.72;10241351;28;20047;-77
2022/09/18 21:47:11;;;;;;;1.55;0.50;;;;;;;10.47;76.72;99976.06;10247551;28;20059;-78
2022/09/18 21:52:13;;;;;;;0.88;0.32;;;;;;;10.52;75.95;99975.66;10241599;28;20059;-78
2022/09/18 21:57:15;;;;;;;0.50;0.22;;;;;;;10.30;76.52;99976.59;10244316;28;20122;-74
2022/09/18 22:02:19;;;;;;;0.75;0.32;;;;;;;10.12;77.16;99987.81;10244585;28;20058;-75
2022/09/18 22:07:22;;;;;;;0.50;0.20;;;;;;;9.98;78.02;100006.72;10245103;28;20086;-74
2022/09/18 22:12:24;;;;;;;1.15;0.40;;;;;;;9.95;77.49;100014.94;10251522;28;20419;-75
2022/09/18 22:17:26;;;;;;;1.48;0.47;;;;;;;9.89;78.09;100019.78;10246434;28;20054;-76
2022/09/18 22:22:27;;;;;;;1.10;0.30;;;;;;;9.91;78.90;100017.84;10242179;28;20594;-78
2022/09/18 22:27:30;;;;;;;1.05;0.20;;;;;;;9.83;78.59;100019.44;10263709;28;21126;-75
2022/09/18 22:32:31;;;;;;;1.65;0.30;;;;;;;9.83;78.94;100014.97;10288290;28;20102;-77
2022/09/18 22:37:32;;;;;;;1.13;0.30;;;;;;;9.76;78.61;100013.78;10254170;28;20058;-75
2022/09/18 22:42:34;;;;;;;0.43;0.13;;;;;;;9.86;79.26;100014.72;10246034;28;20518;-75
2022/09/18 22:47:35;;;;;;;0.63;0.30;;;;;;;9.81;79.38;100016.91;10243148;28;20063;-75
2022/09/18 22:52:36;;;;;;;1.83;0.52;;;;;;;9.76;79.98;100019.09;10240021;28;20062;-75
2022/09/18 22:57:38;;;;;;;2.08;0.38;;;;;;;9.78;80.15;100022.47;10254884;28;20047;-77
2022/09/18 23:02:41;;;;;;;2.63;0.50;;;;;;;9.83;80.39;100030.94;10259101;28;20035;-79
2022/09/18 23:07:45;;;;;;;1.13;0.20;;;;;;;9.80;80.05;100025.84;10249790;28;22937;-75
2022/09/18 23:12:46;;;;;;;2.00;0.70;;;;;;;9.84;80.90;100034.44;10246578;28;20047;-74
2022/09/18 23:17:47;;;;;;;1.08;0.43;;;;;;;9.75;82.09;100038.66;10240215;28;20471;-74
2022/09/18 23:22:49;;;;;;;1.58;0.40;;;;;;;9.84;81.14;100035.25;10235123;28;20517;-74
2022/09/18 23:27:51;;;;;;;1.98;0.45;;;;;;;9.72;81.31;100031.78;10232309;28;20061;-75
2022/09/18 23:32:53;;;;;;;2.58;0.50;;;;;;;9.68;80.85;100029.50;10242821;28;20392;-74
2022/09/18 23:37:55;;;;;;;1.38;0.43;;;;;;;9.77;82.46;100036.72;10237739;28;20062;-76
2022/09/18 23:42:56;;;;;;;1.27;0.40;;;;;;;9.92;81.35;100039.94;10232637;28;20051;-74